Time;durP1;ratioP1;P1;durP2;ratioP2;P2;SDS_P1;SDS_P2;PMS_P1;PMS_P2;Temp;Humidity;BMP_temperature;BMP_pressure;BME280_temperature;BME280_humidity;BME280_pressure;Samples;Min_cycle;Max_cycle;Signal;HPM_P1;HPM_P2
2022/04/15 00:02:17;;;;;;;15.25;5.65;;;;;;;-139.48;100.00;61774.03;4981259;28;20045;-75
2022/04/15 00:05:01;;;;;;;10.85;6.10;;;;;;;-139.48;100.00;61774.03;4981087;28;20045;-74
2022/04/15 00:07:45;;;;;;;11.63;5.78;;;;;;;-139.48;100.00;61774.03;4994727;28;20488;-75
2022/04/15 00:10:29;;;;;;;11.13;6.57;;;;;;;-139.48;100.00;61774.03;4995501;28;20057;-75
2022/04/15 00:13:19;;;;;;;11.23;6.13;;;;;;;-139.48;100.00;61774.03;4980835;28;20049;-75
2022/04/15 00:16:05;;;;;;;9.38;5.80;;;;;;;-139.48;100.00;61774.03;4981427;28;20053;-76
2022/04/15 00:18:49;;;;;;;8.40;5.38;;;;;;;-139.48;100.00;61774.03;4980471;28;20533;-74
2022/04/15 00:21:33;;;;;;;10.07;6.57;;;;;;;-139.48;100.00;61774.03;4994554;28;20177;-75
2022/04/15 00:24:17;;;;;;;9.98;6.15;;;;;;;-139.48;100.00;61774.03;4995211;28;20622;-75
2022/04/15 00:27:02;;;;;;;10.82;6.10;;;;;;;-139.48;100.00;61774.03;4994064;28;20104;-74
2022/04/15 00:29:45;;;;;;;9.30;6.05;;;;;;;-139.48;100.00;61774.03;4994388;28;20055;-75
2022/04/15 00:32:29;;;;;;;8.82;6.63;;;;;;;-139.48;100.00;61774.03;4994121;28;20441;-75
2022/04/15 00:35:13;;;;;;;9.50;5.90;;;;;;;-139.48;100.00;61774.03;4995293;28;20053;-75
2022/04/15 00:37:57;;;;;;;10.98;6.53;;;;;;;-139.48;100.00;61774.03;4994012;28;20049;-75
2022/04/15 00:40:41;;;;;;;11.50;7.15;;;;;;;-139.48;100.00;61774.03;4980344;28;20414;-75
2022/04/15 00:43:25;;;;;;;17.50;6.70;;;;;;;-139.48;100.00;61774.03;4994204;28;20461;-75
2022/04/15 00:46:09;;;;;;;8.70;6.95;;;;;;;-139.48;100.00;61774.03;4980623;28;20131;-75
2022/04/15 00:48:54;;;;;;;9.75;7.03;;;;;;;-139.48;100.00;61774.03;4993937;28;20525;-75
2022/04/15 00:51:38;;;;;;;10.23;7.13;;;;;;;-139.48;100.00;61774.03;4994742;28;20057;-75
2022/04/15 00:54:23;;;;;;;12.73;7.60;;;;;;;-139.48;100.00;61774.03;4993922;28;20142;-75
2022/04/15 00:57:09;;;;;;;9.85;7.13;;;;;;;-139.48;100.00;61774.03;4993803;28;20130;-74
2022/04/15 00:59:54;;;;;;;11.23;7.50;;;;;;;-139.48;100.00;61774.03;4994504;28;20512;-75
2022/04/15 01:02:39;;;;;;;9.48;7.07;;;;;;;-139.48;100.00;61774.03;4993794;28;20060;-75
2022/04/15 01:05:23;;;;;;;13.18;7.65;;;;;;;-139.48;100.00;61774.03;4993804;28;20049;-75
2022/04/15 01:08:08;;;;;;;10.57;7.38;;;;;;;-139.48;100.00;61774.03;4993570;28;20072;-74
2022/04/15 01:10:56;;;;;;;13.32;7.80;;;;;;;-139.48;100.00;61774.03;4993633;28;20121;-75
2022/04/15 01:13:40;;;;;;;13.27;7.70;;;;;;;-139.48;100.00;61774.03;4993354;28;20053;-75
2022/04/15 01:16:24;;;;;;;11.85;7.78;;;;;;;-139.48;100.00;61774.03;4979590;28;20057;-75
2022/04/15 01:19:08;;;;;;;11.63;7.47;;;;;;;-139.48;100.00;61774.03;5029334;22;20131;-70
2022/04/15 01:21:55;;;;;;;10.48;7.68;;;;;;;-139.48;100.00;61774.03;5014117;28;20052;-71
2022/04/15 01:24:39;;;;;;;16.67;8.07;;;;;;;-139.48;100.00;61774.03;5014033;28;20505;-71
2022/04/15 01:27:56;;;;;;;15.65;8.27;;;;;;;-139.48;100.00;61774.03;5013042;28;20051;-71
2022/04/15 01:30:40;;;;;;;10.75;8.02;;;;;;;-139.48;100.00;61774.03;4960902;28;20144;-71
2022/04/15 01:33:24;;;;;;;12.40;7.82;;;;;;;-139.48;100.00;61774.03;4993361;28;20096;-71
2022/04/15 01:36:07;;;;;;;12.90;7.72;;;;;;;-139.48;100.00;61774.03;4993036;28;20124;-71
2022/04/15 01:38:52;;;;;;;10.57;7.45;;;;;;;-139.48;100.00;61774.03;4992081;28;20065;-71
2022/04/15 01:41:40;;;;;;;8.80;7.53;;;;;;;-139.48;100.00;61774.03;4993249;28;20049;-71
2022/04/15 01:44:24;;;;;;;9.93;6.78;;;;;;;-139.48;100.00;61774.03;4994403;28;20053;-71
2022/04/15 01:47:09;;;;;;;9.05;7.22;;;;;;;-139.48;100.00;61774.03;4994156;28;20116;-71
2022/04/15 01:49:53;;;;;;;10.07;6.85;;;;;;;-139.48;100.00;61774.03;4993136;28;20096;-71
2022/04/15 01:52:38;;;;;;;11.02;7.07;;;;;;;-139.48;100.00;61774.03;4993121;28;20104;-71
2022/04/15 01:55:22;;;;;;;12.23;7.78;;;;;;;-139.48;100.00;61774.03;4993170;28;20135;-71
2022/04/15 01:58:06;;;;;;;9.95;7.35;;;;;;;-139.48;100.00;61774.03;4992957;28;20071;-71
2022/04/15 02:00:50;;;;;;;15.07;7.85;;;;;;;-139.48;100.00;61774.03;4993108;28;20108;-71
2022/04/15 02:03:34;;;;;;;11.68;7.30;;;;;;;-139.48;100.00;61774.03;4992762;28;20159;-71
2022/04/15 02:06:18;;;;;;;14.55;7.38;;;;;;;-139.48;100.00;61774.03;4993996;28;20096;-71
2022/04/15 02:09:02;;;;;;;12.40;7.45;;;;;;;-139.48;100.00;61774.03;4993596;28;20097;-71
2022/04/15 02:11:46;;;;;;;12.43;7.57;;;;;;;-139.48;100.00;61774.03;4992907;28;20048;-72
2022/04/15 02:14:30;;;;;;;13.55;7.22;;;;;;;-139.48;100.00;61774.03;4992681;28;20057;-71
2022/04/15 02:17:14;;;;;;;12.85;7.25;;;;;;;-139.48;100.00;61774.03;4979399;28;20131;-71
2022/04/15 02:19:58;;;;;;;15.55;7.13;;;;;;;-139.48;100.00;61774.03;4993840;28;20104;-72
2022/04/15 02:22:42;;;;;;;11.20;6.88;;;;;;;-139.48;100.00;61774.03;4992655;28;20126;-71
2022/04/15 02:25:26;;;;;;;11.07;7.47;;;;;;;-139.48;100.00;61774.03;4993849;28;20417;-71
2022/04/15 02:28:10;;;;;;;11.80;6.72;;;;;;;-139.48;100.00;61774.03;4993752;28;20117;-72
2022/04/15 02:30:54;;;;;;;11.63;7.63;;;;;;;-139.48;100.00;61774.03;4992529;28;20473;-71
2022/04/15 02:33:38;;;;;;;8.82;6.60;;;;;;;-139.48;100.00;61774.03;4993500;28;20099;-71
2022/04/15 02:36:22;;;;;;;9.23;7.18;;;;;;;-139.48;100.00;61774.03;4992800;28;20068;-71
2022/04/15 02:39:10;;;;;;;12.48;7.55;;;;;;;-139.48;100.00;61774.03;4992566;28;20049;-71
2022/04/15 02:41:55;;;;;;;12.25;8.00;;;;;;;-139.48;100.00;61774.03;4993611;28;20517;-71
2022/04/15 02:44:39;;;;;;;8.90;6.85;;;;;;;-139.48;100.00;61774.03;4992679;28;20056;-71
2022/04/15 02:47:23;;;;;;;9.90;6.25;;;;;;;-139.48;100.00;61774.03;4992394;28;20052;-71
2022/04/15 02:50:08;;;;;;;9.70;6.63;;;;;;;-139.48;100.00;61774.03;4994591;28;20045;-70
2022/04/15 02:52:52;;;;;;;9.25;6.85;;;;;;;-139.48;100.00;61774.03;4996225;28;20049;-71
2022/04/15 02:55:36;;;;;;;9.27;7.22;;;;;;;-139.48;100.00;61774.03;4996196;28;20510;-71
2022/04/15 02:58:20;;;;;;;12.05;7.53;;;;;;;-139.48;100.00;61774.03;4995694;28;20720;-71
2022/04/15 03:01:04;;;;;;;8.90;7.57;;;;;;;-139.48;100.00;61774.03;4995801;28;20434;-71
2022/04/15 03:03:48;;;;;;;10.05;7.45;;;;;;;-139.48;100.00;61774.03;4996049;28;20057;-72
2022/04/15 03:06:32;;;;;;;9.90;7.40;;;;;;;-139.48;100.00;61774.03;4995689;28;20184;-71
2022/04/15 03:09:16;;;;;;;9.90;7.50;;;;;;;-139.48;100.00;61774.03;4995887;28;20058;-71
2022/04/15 03:12:00;;;;;;;12.07;7.03;;;;;;;-139.48;100.00;61774.03;4996080;28;20053;-71
2022/04/15 03:14:44;;;;;;;11.15;6.88;;;;;;;-139.48;100.00;61774.03;4995922;28;20069;-71
2022/04/15 03:17:28;;;;;;;9.98;7.43;;;;;;;-139.48;100.00;61774.03;4995726;28;20116;-71
2022/04/15 03:20:13;;;;;;;13.93;7.28;;;;;;;-139.48;100.00;61774.03;4995474;28;20037;-72
2022/04/15 03:22:57;;;;;;;9.85;7.65;;;;;;;-139.48;100.00;61774.03;4995557;28;20076;-72
2022/04/15 03:25:41;;;;;;;10.30;7.05;;;;;;;-139.48;100.00;61774.03;4996625;28;20073;-70
2022/04/15 03:28:25;;;;;;;9.20;7.15;;;;;;;-139.48;100.00;61774.03;4996218;28;20053;-71
2022/04/15 03:31:10;;;;;;;10.70;7.28;;;;;;;-139.48;100.00;61774.03;4981798;28;20052;-71
2022/04/15 03:33:54;;;;;;;11.63;7.40;;;;;;;-139.48;100.00;61774.03;4996432;28;20558;-70
2022/04/15 03:36:40;;;;;;;12.18;7.32;;;;;;;-139.48;100.00;61774.03;4995190;28;20168;-71
2022/04/15 03:39:24;;;;;;;14.00;7.85;;;;;;;-139.48;100.00;61774.03;4995884;28;20053;-70
2022/04/15 03:42:08;;;;;;;12.27;7.22;;;;;;;-139.48;100.00;61774.03;4995607;28;20108;-71
2022/04/15 03:44:51;;;;;;;13.10;8.00;;;;;;;-139.48;100.00;61774.03;4995475;28;20049;-70
2022/04/15 03:47:35;;;;;;;9.73;7.45;;;;;;;-139.48;100.00;61774.03;4995182;28;20053;-71
2022/04/15 03:50:20;;;;;;;12.57;7.20;;;;;;;-139.48;100.00;61774.03;4994984;28;20537;-71
2022/04/15 03:53:04;;;;;;;10.65;7.53;;;;;;;-139.48;100.00;61774.03;4996095;28;20513;-71
2022/04/15 03:55:49;;;;;;;9.77;7.25;;;;;;;-139.48;100.00;61774.03;4994801;28;20045;-71
2022/04/15 03:58:36;;;;;;;10.30;7.15;;;;;;;-139.48;100.00;61774.03;4994661;28;20057;-72
2022/04/15 04:01:20;;;;;;;11.57;7.18;;;;;;;-139.48;100.00;61774.03;4994957;28;20415;-70
2022/04/15 04:04:04;;;;;;;14.20;8.57;;;;;;;-139.48;100.00;61774.03;4995618;28;20057;-71
2022/04/15 04:06:48;;;;;;;10.35;7.53;;;;;;;-139.48;100.00;61774.03;4995814;28;20049;-70
2022/04/15 04:09:32;;;;;;;10.45;7.60;;;;;;;-139.48;100.00;61774.03;4995460;28;20049;-71
2022/04/15 04:12:15;;;;;;;12.52;8.02;;;;;;;-139.48;100.00;61774.03;4994745;28;20104;-71
2022/04/15 04:15:00;;;;;;;10.98;7.85;;;;;;;-139.48;100.00;61774.03;4994690;28;20540;-71
2022/04/15 04:17:46;;;;;;;12.05;8.32;;;;;;;-139.48;100.00;61774.03;4994532;28;20057;-71
2022/04/15 04:20:30;;;;;;;12.68;8.13;;;;;;;-139.48;100.00;61774.03;4994660;28;20065;-71
2022/04/15 04:23:15;;;;;;;12.60;7.78;;;;;;;-139.48;100.00;61774.03;4994519;28;20414;-71
2022/04/15 04:25:58;;;;;;;11.23;7.75;;;;;;;-139.48;100.00;61774.03;4994532;28;20080;-71
2022/04/15 04:28:42;;;;;;;12.02;7.82;;;;;;;-139.48;100.00;61774.03;4995108;28;20101;-71
2022/04/15 04:31:26;;;;;;;11.13;8.15;;;;;;;-139.48;100.00;61774.03;4995390;28;20465;-71
2022/04/15 04:34:10;;;;;;;12.52;8.05;;;;;;;-139.48;100.00;61774.03;4995327;28;20423;-71
2022/04/15 04:36:54;;;;;;;12.02;7.32;;;;;;;-139.48;100.00;61774.03;4995273;28;20133;-71
2022/04/15 04:39:38;;;;;;;9.25;6.97;;;;;;;-139.48;100.00;61774.03;4994164;28;20121;-71
2022/04/15 04:42:22;;;;;;;10.52;7.03;;;;;;;-139.48;100.00;61774.03;4994174;28;20057;-70
2022/04/15 04:45:06;;;;;;;9.77;6.90;;;;;;;-139.48;100.00;61774.03;4993872;28;20053;-71
2022/04/15 04:47:50;;;;;;;16.25;7.53;;;;;;;-139.48;100.00;61774.03;4994012;28;20077;-71
2022/04/15 04:50:35;;;;;;;8.95;6.85;;;;;;;-139.48;100.00;61774.03;4994200;28;20057;-71
2022/04/15 04:53:18;;;;;;;8.82;7.00;;;;;;;-139.48;100.00;61774.03;4994980;28;20509;-70
2022/04/15 04:56:02;;;;;;;9.75;6.35;;;;;;;-139.48;100.00;61774.03;4993970;28;20128;-71
2022/04/15 04:58:46;;;;;;;12.68;7.07;;;;;;;-139.48;100.00;61774.03;4993491;28;20605;-70
2022/04/15 05:01:30;;;;;;;13.85;6.55;;;;;;;-139.48;100.00;61774.03;4994824;28;20077;-71
2022/04/15 05:04:14;;;;;;;8.88;6.18;;;;;;;-139.48;100.00;61774.03;4993528;28;20553;-71
2022/04/15 05:06:58;;;;;;;12.02;6.97;;;;;;;-139.48;100.00;61774.03;4993745;28;20525;-71
2022/04/15 05:09:43;;;;;;;12.75;7.72;;;;;;;-139.48;100.00;61774.03;4994360;28;20050;-71
2022/04/15 05:12:27;;;;;;;11.45;7.00;;;;;;;-139.48;100.00;61774.03;4993164;28;20096;-71
2022/04/15 05:15:11;;;;;;;11.30;7.40;;;;;;;-139.48;100.00;61774.03;4993662;28;20120;-70
2022/04/15 05:17:56;;;;;;;12.25;7.35;;;;;;;-139.48;100.00;61774.03;4993106;28;20181;-71
2022/04/15 05:20:40;;;;;;;8.85;6.88;;;;;;;-139.48;100.00;61774.03;4993797;28;20053;-71
2022/04/15 05:23:24;;;;;;;8.63;7.28;;;;;;;-139.48;100.00;61774.03;4993460;28;20053;-71
2022/04/15 05:26:08;;;;;;;10.65;7.10;;;;;;;-139.48;100.00;61774.03;4993299;28;20572;-71
2022/04/15 05:28:52;;;;;;;11.05;7.60;;;;;;;-139.48;100.00;61774.03;4993085;28;20053;-71
2022/04/15 05:31:36;;;;;;;12.20;7.13;;;;;;;-139.48;100.00;61774.03;4993677;28;20513;-71
2022/04/15 05:34:20;;;;;;;10.32;7.03;;;;;;;-139.48;100.00;61774.03;4993546;28;20088;-71
2022/04/15 05:37:04;;;;;;;12.85;7.57;;;;;;;-139.48;100.00;61774.03;4993026;28;20446;-71
2022/04/15 05:39:47;;;;;;;11.10;6.40;;;;;;;-139.48;100.00;61774.03;4992882;28;20113;-71
2022/04/15 05:42:31;;;;;;;9.55;6.22;;;;;;;-139.48;100.00;61774.03;4993517;28;20174;-70
2022/04/15 05:45:15;;;;;;;9.05;6.63;;;;;;;-139.48;100.00;61774.03;4993306;28;20049;-71
2022/04/15 05:47:59;;;;;;;11.63;8.18;;;;;;;-139.48;100.00;61774.03;4994076;28;20077;-71
2022/04/15 05:50:43;;;;;;;9.25;7.45;;;;;;;-139.48;100.00;61774.03;4994173;28;20049;-71
2022/04/15 05:53:27;;;;;;;10.32;7.63;;;;;;;-139.48;100.00;61774.03;4992875;28;20134;-71
2022/04/15 05:56:11;;;;;;;13.05;7.72;;;;;;;-139.48;100.00;61774.03;4993352;28;20100;-71
2022/04/15 05:58:54;;;;;;;10.80;7.28;;;;;;;-139.48;100.00;61774.03;4992805;28;20116;-71
2022/04/15 06:01:38;;;;;;;13.18;7.20;;;;;;;-139.48;100.00;61774.03;4992816;28;20049;-71
2022/04/15 06:04:22;;;;;;;10.68;7.55;;;;;;;-139.48;100.00;61774.03;4992856;28;20053;-71
2022/04/15 06:07:06;;;;;;;13.27;7.60;;;;;;;-139.48;100.00;61774.03;4994001;28;20049;-71
2022/04/15 06:09:50;;;;;;;13.05;7.15;;;;;;;-139.48;100.00;61774.03;4993086;28;20411;-71
2022/04/15 06:15:51;;;;;;;10.68;7.60;;;;;;;-139.48;100.00;61774.03;4993993;28;20100;-71
2022/04/15 06:18:36;;;;;;;11.65;7.93;;;;;;;-139.48;100.00;61774.03;4992490;28;20096;-71
2022/04/15 06:21:20;;;;;;;12.30;7.70;;;;;;;-139.48;100.00;61774.03;4993160;28;20084;-71
2022/04/15 06:24:06;;;;;;;9.25;7.22;;;;;;;-139.48;100.00;61774.03;4993117;28;20054;-71
2022/04/15 06:26:51;;;;;;;13.48;8.45;;;;;;;-139.48;100.00;61774.03;4996744;28;20529;-71
2022/04/15 06:29:35;;;;;;;14.77;8.05;;;;;;;-139.48;100.00;61774.03;4996320;28;20046;-71
2022/04/15 06:32:19;;;;;;;10.93;7.57;;;;;;;-139.48;100.00;61774.03;4996674;28;20053;-70
2022/04/15 06:35:04;;;;;;;13.90;7.63;;;;;;;-139.48;100.00;61774.03;4996818;28;20095;-71
2022/04/15 06:37:48;;;;;;;10.45;7.82;;;;;;;-139.48;100.00;61774.03;4996449;28;20056;-70
2022/04/15 06:40:32;;;;;;;10.35;8.05;;;;;;;-139.48;100.00;61774.03;4997457;28;20045;-71
2022/04/15 06:43:16;;;;;;;10.65;7.30;;;;;;;-139.48;100.00;61774.03;4996155;28;20088;-71
2022/04/15 06:46:02;;;;;;;11.10;7.93;;;;;;;-139.48;100.00;61774.03;4996396;28;20057;-71
2022/04/15 06:48:46;;;;;;;9.18;7.80;;;;;;;-139.48;100.00;61774.03;4996016;28;20049;-71
2022/04/15 06:51:31;;;;;;;10.32;7.88;;;;;;;-139.48;100.00;61774.03;4997269;28;20093;-71
2022/04/15 06:54:15;;;;;;;10.73;7.40;;;;;;;-139.48;100.00;61774.03;4995922;28;20109;-71
2022/04/15 06:56:58;;;;;;;15.18;10.05;;;;;;;-139.48;100.00;61774.03;4996166;28;20503;-71
2022/04/15 06:59:42;;;;;;;18.60;10.88;;;;;;;-139.48;100.00;61774.03;4996710;28;20122;-71
2022/04/15 07:02:26;;;;;;;19.27;13.05;;;;;;;-139.48;100.00;61774.03;4996100;28;20053;-71
2022/04/15 07:05:10;;;;;;;17.00;11.07;;;;;;;-139.48;100.00;61774.03;4996714;28;20096;-71
2022/04/15 07:07:54;;;;;;;16.15;10.75;;;;;;;-139.48;100.00;61774.03;4995859;28;20138;-71
2022/04/15 07:10:38;;;;;;;18.02;11.95;;;;;;;-139.48;100.00;61774.03;4995758;28;20049;-70
2022/04/15 07:13:23;;;;;;;15.68;12.27;;;;;;;-139.48;100.00;61774.03;4997095;28;20092;-71
2022/04/15 07:16:07;;;;;;;19.65;13.57;;;;;;;-139.48;100.00;61774.03;4996822;28;20501;-71
2022/04/15 07:18:52;;;;;;;17.33;13.77;;;;;;;-139.48;100.00;61774.03;5025260;22;20525;-69
2022/04/15 07:21:43;;;;;;;19.10;14.50;;;;;;;-139.48;100.00;61774.03;5001480;28;20425;-69
2022/04/15 07:24:30;;;;;;;28.98;16.80;;;;;;;-139.48;100.00;61774.03;5015294;28;20108;-69
2022/04/15 07:27:15;;;;;;;19.00;15.20;;;;;;;-139.48;100.00;61774.03;5015205;28;20509;-69
2022/04/15 07:29:59;;;;;;;18.55;14.30;;;;;;;-139.48;100.00;61774.03;5016133;28;20517;-69
2022/04/15 07:32:42;;;;;;;20.20;16.15;;;;;;;-139.48;100.00;61774.03;5015170;28;20406;-69
2022/04/15 07:35:26;;;;;;;21.70;16.45;;;;;;;-139.48;100.00;61774.03;5014974;28;20088;-69
2022/04/15 07:38:10;;;;;;;21.75;15.52;;;;;;;-139.48;100.00;61774.03;5001090;28;20096;-69
2022/04/15 07:40:54;;;;;;;23.33;17.05;;;;;;;-139.48;100.00;61774.03;5016042;28;20185;-69
2022/04/15 07:43:38;;;;;;;21.25;16.10;;;;;;;-139.48;100.00;61774.03;5015049;28;20079;-69
2022/04/15 07:46:22;;;;;;;22.63;17.40;;;;;;;-139.48;100.00;61774.03;5014654;28;20060;-69
2022/04/15 07:49:06;;;;;;;21.58;15.85;;;;;;;-139.48;100.00;61774.03;5014889;28;20553;-69
2022/04/15 07:51:50;;;;;;;25.58;16.80;;;;;;;-139.48;100.00;61774.03;5014885;28;20045;-69
2022/04/15 07:54:35;;;;;;;25.17;16.60;;;;;;;-139.48;100.00;61774.03;5014799;28;20461;-70
2022/04/15 07:57:19;;;;;;;22.90;15.77;;;;;;;-139.48;100.00;61774.03;5014923;28;20143;-69
2022/04/15 08:00:04;;;;;;;22.17;16.35;;;;;;;-139.48;100.00;61774.03;5014295;28;20536;-69
2022/04/15 08:02:48;;;;;;;21.80;16.77;;;;;;;-139.48;100.00;61774.03;5014515;28;20096;-69
2022/04/15 08:05:32;;;;;;;21.85;16.92;;;;;;;-139.48;100.00;61774.03;5014795;28;20543;-69
2022/04/15 08:08:16;;;;;;;;;;;;;;;-139.48;100.00;61774.03;5014618;28;20100;-69
2022/04/15 08:11:00;;;;;;;24.15;18.05;;;;;;;-139.48;100.00;61774.03;5015246;28;19921;-69
2022/04/15 08:13:44;;;;;;;21.60;17.40;;;;;;;-139.48;100.00;61774.03;5015180;28;20191;-69
2022/04/15 08:16:28;;;;;;;26.00;18.58;;;;;;;-139.48;100.00;61774.03;5014428;28;20176;-69
2022/04/15 08:19:11;;;;;;;25.15;17.88;;;;;;;-139.48;100.00;61774.03;5014802;28;20045;-69
2022/04/15 08:21:55;;;;;;;28.60;19.45;;;;;;;-139.48;100.00;61774.03;5014974;28;20053;-69
2022/04/15 08:24:42;;;;;;;;;;;;;;;-139.48;100.00;61774.03;5000725;28;20141;-69
2022/04/15 08:27:26;;;;;;;24.02;19.02;;;;;;;-139.48;100.00;61774.03;5000460;28;19919;-69
2022/04/15 08:30:10;;;;;;;25.20;18.35;;;;;;;-139.48;100.00;61774.03;5013923;28;20516;-69
2022/04/15 08:32:56;;;;;;;26.38;18.52;;;;;;;-139.48;100.00;61774.03;5014088;28;20505;-69
2022/04/15 08:35:40;;;;;;;24.13;18.58;;;;;;;-139.48;100.00;61774.03;5013642;28;20179;-69
2022/04/15 08:38:23;;;;;;;24.63;17.70;;;;;;;-139.48;100.00;61774.03;5014616;28;20522;-69
2022/04/15 08:41:08;;;;;;;;;;;;;;;-139.48;100.00;61774.03;5015228;28;20574;-69
2022/04/15 08:43:53;;;;;;;21.67;18.10;;;;;;;-139.48;100.00;61774.03;4999712;28;19927;-69
2022/04/15 08:46:37;;;;;;;24.33;17.25;;;;;;;-139.48;100.00;61774.03;5013565;28;20413;-69
2022/04/15 08:49:22;;;;;;;23.15;18.05;;;;;;;-139.48;100.00;61774.03;5013393;28;20573;-70
2022/04/15 08:52:08;;;;;;;24.90;17.00;;;;;;;-139.48;100.00;61774.03;5013409;28;20508;-69
2022/04/15 08:54:52;;;;;;;24.17;17.88;;;;;;;-139.48;100.00;61774.03;5013346;28;20505;-69
2022/04/15 08:57:37;;;;;;;24.35;17.90;;;;;;;-139.48;100.00;61774.03;5013282;28;20064;-69
2022/04/15 09:00:22;;;;;;;25.55;18.25;;;;;;;-139.48;100.00;61774.03;5013309;28;20454;-69
2022/04/15 09:03:07;;;;;;;22.75;18.13;;;;;;;-139.48;100.00;61774.03;5013435;28;20108;-69
2022/04/15 09:05:51;;;;;;;25.00;17.83;;;;;;;-139.48;100.00;61774.03;5013373;28;20401;-69
2022/04/15 09:08:35;;;;;;;24.02;18.27;;;;;;;-139.48;100.00;61774.03;5013240;28;20091;-69
2022/04/15 09:11:19;;;;;;;24.52;18.63;;;;;;;-139.48;100.00;61774.03;5013284;28;20053;-69
2022/04/15 09:14:08;;;;;;;20.98;18.10;;;;;;;-139.48;100.00;61774.03;5013212;28;20053;-69
2022/04/15 09:16:53;;;;;;;24.77;19.17;;;;;;;-139.48;100.00;61774.03;5013979;28;20461;-70
2022/04/15 09:19:38;;;;;;;24.50;19.67;;;;;;;-139.48;100.00;61774.03;5013638;28;20060;-69
2022/04/15 09:22:21;;;;;;;23.70;17.92;;;;;;;-139.48;100.00;61774.03;4999255;28;20049;-69
2022/04/15 09:25:06;;;;;;;;;;;;;;;-139.48;100.00;61774.03;5013509;28;20081;-69
2022/04/15 09:27:54;;;;;;;27.08;18.13;;;;;;;-139.48;100.00;61774.03;5012862;28;19920;-69
2022/04/15 09:30:42;;;;;;;27.80;19.88;;;;;;;-139.48;100.00;61774.03;5013752;28;20100;-69
2022/04/15 09:33:26;;;;;;;28.52;19.70;;;;;;;-139.48;100.00;61774.03;5013978;28;20121;-69
2022/04/15 09:36:27;;;;;;;27.95;19.52;;;;;;;-139.48;100.00;61774.03;5012693;28;20084;-69
2022/04/15 09:39:16;;;;;;;23.98;18.45;;;;;;;-139.48;100.00;61774.03;5012791;28;20037;-69
2022/04/15 09:42:03;;;;;;;23.85;18.63;;;;;;;-139.48;100.00;61774.03;5013873;28;20111;-69
2022/04/15 09:44:47;;;;;;;27.45;18.45;;;;;;;-139.48;100.00;61774.03;5012662;28;20052;-69
2022/04/15 09:47:32;;;;;;;24.98;18.58;;;;;;;-139.48;100.00;61774.03;4999021;28;20125;-69
2022/04/15 09:50:37;;;;;;;22.45;17.95;;;;;;;-139.48;100.00;61774.03;5012749;28;20061;-69
2022/04/15 09:53:23;;;;;;;22.80;17.77;;;;;;;-139.48;100.00;61774.03;4998823;28;20620;-69
2022/04/15 09:56:09;;;;;;;22.45;16.25;;;;;;;-139.48;100.00;61774.03;5013444;28;20049;-69
2022/04/15 09:58:54;;;;;;;21.75;15.82;;;;;;;-139.48;100.00;61774.03;4998667;28;20121;-69
2022/04/15 10:01:41;;;;;;;21.70;15.90;;;;;;;-139.48;100.00;61774.03;5003018;28;20057;-69
2022/04/15 10:04:26;;;;;;;20.30;15.30;;;;;;;-139.48;100.00;61774.03;5016748;28;20052;-69
2022/04/15 10:07:10;;;;;;;18.33;14.73;;;;;;;-139.48;100.00;61774.03;5017682;28;20092;-69
2022/04/15 10:09:54;;;;;;;19.65;15.20;;;;;;;-139.48;100.00;61774.03;5016301;28;20192;-69
2022/04/15 10:12:39;;;;;;;;;;;;;;;-139.48;100.00;61774.03;5016767;28;20057;-69
2022/04/15 10:15:24;;;;;;;21.38;16.25;;;;;;;-139.48;100.00;61774.03;5016601;28;19959;-69
2022/04/15 10:18:08;;;;;;;19.00;14.88;;;;;;;-139.48;100.00;61774.03;5002074;28;20048;-70
2022/04/15 10:20:52;;;;;;;18.33;15.55;;;;;;;-139.48;100.00;61774.03;5016648;28;20052;-70
2022/04/15 10:23:36;;;;;;;21.23;16.55;;;;;;;-139.48;100.00;61774.03;5016694;28;20555;-70
2022/04/15 10:26:20;;;;;;;19.25;16.23;;;;;;;-139.48;100.00;61774.03;5016051;28;20068;-69
2022/04/15 10:29:04;;;;;;;17.90;15.77;;;;;;;-139.48;100.00;61774.03;5002401;28;20044;-70
2022/04/15 10:31:48;;;;;;;18.02;15.00;;;;;;;-139.48;100.00;61774.03;5002421;28;20091;-69
2022/04/15 10:34:45;;;;;;;17.75;14.63;;;;;;;-139.48;100.00;61774.03;5016172;28;20044;-69
2022/04/15 10:37:46;;;;;;;17.40;15.13;;;;;;;-139.48;100.00;61774.03;5016207;28;20153;-69
2022/04/15 10:40:34;;;;;;;17.48;15.43;;;;;;;-139.48;100.00;61774.03;5015800;28;20037;-70
2022/04/15 10:43:20;;;;;;;19.02;16.23;;;;;;;-139.48;100.00;61774.03;5015809;28;20073;-70
2022/04/15 10:46:12;;;;;;;17.58;15.65;;;;;;;-139.48;100.00;61774.03;5002138;28;20052;-69
2022/04/15 10:48:57;;;;;;;18.08;14.90;;;;;;;-139.48;100.00;61774.03;5015924;28;20045;-70
2022/04/15 10:51:41;;;;;;;18.88;15.38;;;;;;;-139.48;100.00;61774.03;5015603;28;20064;-70
2022/04/15 10:54:35;;;;;;;17.83;15.05;;;;;;;-139.48;100.00;61774.03;5015777;28;20048;-70
2022/04/15 10:57:21;;;;;;;16.00;13.48;;;;;;;-139.48;100.00;61774.03;5016400;28;20512;-70
2022/04/15 11:03:28;;;;;;;21.35;16.23;;;;;;;-139.48;100.00;61774.03;5015553;28;20097;-70
2022/04/15 11:06:24;;;;;;;14.15;12.10;;;;;;;-139.48;100.00;61774.03;5015803;28;20118;-69
2022/04/15 11:09:15;;;;;;;15.93;13.75;;;;;;;-139.48;100.00;61774.03;5015486;28;20041;-70
2022/04/15 11:12:02;;;;;;;17.92;13.63;;;;;;;-139.48;100.00;61774.03;5001005;28;20108;-70
2022/04/15 11:14:46;;;;;;;15.50;13.70;;;;;;;-139.48;100.00;61774.03;5015308;28;20085;-70
2022/04/15 11:17:44;;;;;;;13.35;11.90;;;;;;;-139.48;100.00;61774.03;5016372;28;20528;-69
2022/04/15 11:20:29;;;;;;;13.88;11.38;;;;;;;-139.48;100.00;61774.03;5015216;28;20045;-69
2022/04/15 11:23:13;;;;;;;15.45;11.70;;;;;;;-139.48;100.00;61774.03;5001174;28;20057;-69
2022/04/15 11:25:57;;;;;;;15.35;12.30;;;;;;;-139.48;100.00;61774.03;5001114;28;20513;-69
2022/04/15 11:28:44;;;;;;;12.95;11.35;;;;;;;-139.48;100.00;61774.03;5015947;28;20041;-69
2022/04/15 11:31:29;;;;;;;15.52;12.00;;;;;;;-139.48;100.00;61774.03;5015181;28;20048;-69
2022/04/15 11:34:16;;;;;;;14.20;11.25;;;;;;;-139.48;100.00;61774.03;5015069;28;20053;-69
2022/04/15 11:37:02;;;;;;;13.85;11.40;;;;;;;-139.48;100.00;61774.03;5001373;28;20053;-69
2022/04/15 11:39:47;;;;;;;15.63;12.50;;;;;;;-139.48;100.00;61774.03;5014595;28;20045;-69
2022/04/15 11:42:31;;;;;;;13.85;12.10;;;;;;;-139.48;100.00;61774.03;5016000;28;20511;-69
2022/04/15 11:45:15;;;;;;;13.25;11.32;;;;;;;-139.48;100.00;61774.03;5014863;28;20449;-69
2022/04/15 11:48:22;;;;;;;12.27;10.27;;;;;;;-139.48;100.00;61774.03;5015533;28;20051;-69
2022/04/15 11:51:06;;;;;;;13.88;9.68;;;;;;;-139.48;100.00;61774.03;5015732;28;20092;-69
2022/04/15 11:53:50;;;;;;;10.50;9.35;;;;;;;-139.48;100.00;61774.03;5000595;28;20077;-69
2022/04/15 11:56:35;;;;;;;10.57;9.35;;;;;;;-139.48;100.00;61774.03;5014668;28;20394;-69
2022/04/15 11:59:19;;;;;;;10.25;8.98;;;;;;;-139.48;100.00;61774.03;5015570;28;20064;-69
2022/04/15 12:02:03;;;;;;;11.25;8.63;;;;;;;-139.48;100.00;61774.03;5015493;28;20115;-69
2022/04/15 12:04:52;;;;;;;9.77;8.77;;;;;;;-139.48;100.00;61774.03;5000693;28;20508;-70
2022/04/15 12:07:36;;;;;;;9.85;8.32;;;;;;;-139.48;100.00;61774.03;5000669;28;20053;-70
2022/04/15 12:10:21;;;;;;;14.07;9.80;;;;;;;-139.48;100.00;61774.03;5000221;28;20152;-70
2022/04/15 12:13:06;;;;;;;12.32;9.55;;;;;;;-139.48;100.00;61774.03;5014053;28;20084;-69
2022/04/15 12:15:51;;;;;;;10.88;9.45;;;;;;;-139.48;100.00;61774.03;5000166;28;20069;-69
2022/04/15 12:18:34;;;;;;;11.88;8.95;;;;;;;-139.48;100.00;61774.03;5013687;28;20509;-69
2022/04/15 12:21:19;;;;;;;9.30;7.72;;;;;;;-139.48;100.00;61774.03;5013813;28;20521;-70
2022/04/15 12:24:11;;;;;;;12.20;7.43;;;;;;;-139.48;100.00;61774.03;5000164;28;20103;-70
2022/04/15 12:26:55;;;;;;;8.82;6.80;;;;;;;-139.48;100.00;61774.03;5014162;28;20049;-70
2022/04/15 12:29:47;;;;;;;10.88;7.57;;;;;;;-139.48;100.00;61774.03;4999888;28;20045;-70